Mariq — SVA2152 — position and weather

sailwx.info

Track history (hours):
 
Tides and Currents Weather Stations Pressure Air Temp Water Temp Dewpoint Dewpoint Depression Visibility Wind Speed Wind Dir Waves Ship Positions

Mariq

Last reported at 2016-Dec-09 23:31 UTC. Time now 2016-Dec-10 09:01 UTC.
Position N 37°17' E 025°53'.

Length 57 m.

Type: Tanker. MMSI: 239758424.

Date/timePositionNaut miles runAvg speedWind from/ knotsBaromVisibWave heightAir tempDewpointWater temp
2016-Dec-09 23:31N 37°17' E 025°53'9 9.1
2016-Dec-09 22:33N 37°17' E 025°42'9 9.5
2016-Dec-09 21:33N 37°18' E 025°30'9 9.3
2016-Dec-09 20:33N 37°19' E 025°18'9 9.2
2016-Dec-09 19:33N 37°20' E 025°07'9 9.4
2016-Dec-09 18:33N 37°21' E 024°55'45 1.2
2016-Dec-08 05:30N 37°42' E 024°04'43 0.9
2016-Dec-06 05:33N 37°21' E 024°52'10 9.5
2016-Dec-06 04:29N 37°20' E 025°05'9 9.7
2016-Dec-06 03:33N 37°21' E 025°16'10 9.7
2016-Dec-06 02:33N 37°25' E 025°27'  
2016-Dec-02 03:04N 37°17' E 025°53'4 8.6
2016-Dec-02 02:33N 37°18' E 025°48'10 8.2
2016-Dec-02 01:18N 37°22' E 025°35'6 7.9
2016-Dec-02 00:33N 37°23' E 025°28'9 8.6
2016-Dec-01 23:33N 37°21' E 025°18'9 8.7
2016-Dec-01 22:33N 37°20' E 025°07'9 8.5
2016-Dec-01 21:33N 37°20' E 024°56'8 8.3
2016-Dec-01 20:33N 37°23' E 024°47'9 8.9
2016-Dec-01 19:33N 37°28' E 024°37'17 8.7
2016-Dec-01 17:34N 37°31' E 024°16'10 9.3
2016-Dec-01 16:26N 37°38' E 024°06'  
Track history (hours):
 
Tides and Currents Weather Stations Pressure Air Temp Water Temp Dewpoint Dewpoint Depression Visibility Wind Speed Wind Dir Waves Ship Positions

Mariq

Last reported at 2016-Dec-09 23:31 UTC. Time now 2016-Dec-10 09:01 UTC.
Position N 37°17' E 025°53'.

Length 57 m.

Type: Tanker. MMSI: 239758424.

Date/timePositionNaut miles runAvg speedWind from/ knotsBaromVisibWave heightAir tempDewpointWater temp
2016-Dec-09 23:31N 37°17' E 025°53'9 9.1
2016-Dec-09 22:33N 37°17' E 025°42'9 9.5
2016-Dec-09 21:33N 37°18' E 025°30'9 9.3
2016-Dec-09 20:33N 37°19' E 025°18'9 9.2
2016-Dec-09 19:33N 37°20' E 025°07'9 9.4
2016-Dec-09 18:33N 37°21' E 024°55'45 1.2
2016-Dec-08 05:30N 37°42' E 024°04'43 0.9
2016-Dec-06 05:33N 37°21' E 024°52'10 9.5
2016-Dec-06 04:29N 37°20' E 025°05'9 9.7
2016-Dec-06 03:33N 37°21' E 025°16'10 9.7
2016-Dec-06 02:33N 37°25' E 025°27'  
2016-Dec-02 03:04N 37°17' E 025°53'4 8.6
2016-Dec-02 02:33N 37°18' E 025°48'10 8.2
2016-Dec-02 01:18N 37°22' E 025°35'6 7.9
2016-Dec-02 00:33N 37°23' E 025°28'9 8.6
2016-Dec-01 23:33N 37°21' E 025°18'9 8.7
2016-Dec-01 22:33N 37°20' E 025°07'9 8.5
2016-Dec-01 21:33N 37°20' E 024°56'8 8.3
2016-Dec-01 20:33N 37°23' E 024°47'9 8.9
2016-Dec-01 19:33N 37°28' E 024°37'17 8.7
2016-Dec-01 17:34N 37°31' E 024°16'10 9.3
2016-Dec-01 16:26N 37°38' E 024°06'  

Dump ship's entire track history